createdAt,value
2019-01-25T00:00:04.599Z,972.36
2019-01-25T00:01:05.176Z,972.38
2019-01-25T00:02:05.580Z,972.47
2019-01-25T00:03:11.019Z,972.30
2019-01-25T00:04:04.960Z,972.41
2019-01-25T00:05:05.307Z,972.30
2019-01-25T00:06:05.148Z,972.49
2019-01-25T00:07:05.162Z,972.36
2019-01-25T00:08:05.273Z,972.44
2019-01-25T00:09:05.421Z,972.33
2019-01-25T00:10:05.035Z,972.52
2019-01-25T00:11:04.776Z,972.30
2019-01-25T00:12:05.413Z,972.39
2019-01-25T00:13:05.026Z,972.52
2019-01-25T00:14:05.109Z,972.28
2019-01-25T00:15:05.414Z,972.30
2019-01-25T00:16:05.445Z,972.41
2019-01-25T00:17:04.667Z,972.39
2019-01-25T00:18:04.859Z,972.52
2019-01-25T00:19:05.190Z,972.54
2019-01-25T00:20:04.971Z,972.41
2019-01-25T00:21:05.388Z,972.47
2019-01-25T00:22:04.675Z,972.39
2019-01-25T00:23:04.680Z,972.63
2019-01-25T00:24:04.736Z,972.47
2019-01-25T00:25:05.476Z,972.36
2019-01-25T00:26:04.699Z,972.47
2019-01-25T00:27:04.746Z,972.31
2019-01-25T00:28:05.568Z,972.47
2019-01-25T00:29:11.349Z,972.44
2019-01-25T00:30:04.824Z,972.31
2019-01-25T00:31:04.853Z,972.42
2019-01-25T00:32:05.363Z,972.47
2019-01-25T00:33:05.406Z,972.63
2019-01-25T00:34:05.062Z,972.58
2019-01-25T00:35:04.769Z,972.47
2019-01-25T00:36:04.833Z,972.63
2019-01-25T00:37:05.181Z,972.52
2019-01-25T00:38:04.809Z,972.52
2019-01-25T00:39:05.132Z,972.42
2019-01-25T00:40:06.851Z,972.55
2019-01-25T00:41:05.434Z,972.63
2019-01-25T00:42:04.763Z,972.45
2019-01-25T00:43:04.914Z,972.42
2019-01-25T00:44:05.007Z,972.47
2019-01-25T00:45:05.090Z,972.47
2019-01-25T00:46:05.411Z,972.45
2019-01-25T00:47:04.994Z,972.52
2019-01-25T00:48:04.795Z,972.52
2019-01-25T00:49:11.354Z,972.48
2019-01-25T00:50:04.889Z,972.39
2019-01-25T00:51:05.005Z,972.75
2019-01-25T00:52:05.088Z,972.52
2019-01-25T00:53:05.364Z,972.45
2019-01-25T00:54:04.917Z,972.53
2019-01-25T00:55:04.950Z,972.42
2019-01-25T00:56:05.070Z,972.45
2019-01-25T00:57:05.348Z,972.55
2019-01-25T00:58:05.011Z,972.66
2019-01-25T00:59:05.089Z,972.55
2019-01-25T01:00:05.109Z,972.53
2019-01-25T01:01:05.578Z,972.69
2019-01-25T01:02:04.691Z,972.58
2019-01-25T01:03:05.178Z,972.64
2019-01-25T01:04:04.716Z,972.58
2019-01-25T01:05:04.647Z,972.69
2019-01-25T01:06:05.317Z,972.64
2019-01-25T01:07:04.573Z,972.75
2019-01-25T01:08:05.213Z,972.78
2019-01-25T01:09:05.144Z,972.64
2019-01-25T01:10:05.327Z,972.69
2019-01-25T01:11:05.165Z,972.67
2019-01-25T01:12:05.247Z,972.78
2019-01-25T01:13:05.247Z,972.64
2019-01-25T01:14:05.345Z,972.48
2019-01-25T01:15:05.420Z,972.58
2019-01-25T01:16:04.981Z,972.69
2019-01-25T01:17:05.160Z,972.72
2019-01-25T01:18:04.870Z,972.67
2019-01-25T01:19:05.319Z,972.70
2019-01-25T01:20:05.296Z,972.59
2019-01-25T01:21:04.914Z,972.86
2019-01-25T01:22:05.333Z,972.64
2019-01-25T01:23:04.697Z,972.59
2019-01-25T01:24:05.154Z,972.69
2019-01-25T01:25:05.421Z,972.64
2019-01-25T01:26:04.656Z,972.67
2019-01-25T01:27:04.958Z,972.64
2019-01-25T01:28:05.143Z,972.69
2019-01-25T01:29:04.753Z,972.59
2019-01-25T01:30:05.316Z,972.61
2019-01-25T01:31:04.706Z,972.70
2019-01-25T01:32:05.068Z,972.70
2019-01-25T01:33:05.220Z,972.83
2019-01-25T01:34:05.261Z,972.86
2019-01-25T01:35:11.407Z,972.75
2019-01-25T01:36:05.003Z,972.78
2019-01-25T01:37:04.997Z,972.78
2019-01-25T01:38:05.492Z,972.81
2019-01-25T01:39:05.541Z,972.81
2019-01-25T01:40:05.572Z,972.70
2019-01-25T01:41:04.489Z,972.72
2019-01-25T01:42:05.154Z,972.69
2019-01-25T01:43:04.594Z,972.91
2019-01-25T01:44:05.266Z,972.81
2019-01-25T01:45:04.998Z,972.64
2019-01-25T01:46:05.166Z,972.81
2019-01-25T01:47:04.545Z,973.00
2019-01-25T01:48:04.694Z,972.81
2019-01-25T01:49:05.257Z,972.94
2019-01-25T01:50:04.568Z,972.89
2019-01-25T01:51:05.201Z,972.75
2019-01-25T01:52:04.867Z,972.81
2019-01-25T01:53:04.530Z,972.86
2019-01-25T01:54:05.226Z,972.80
2019-01-25T01:55:05.496Z,972.86
2019-01-25T01:56:05.493Z,972.94
2019-01-25T01:57:05.437Z,972.94
2019-01-25T01:58:05.290Z,972.97
2019-01-25T01:59:04.786Z,973.00
2019-01-25T02:00:04.852Z,972.86
2019-01-25T02:01:04.869Z,973.03
2019-01-25T02:02:05.424Z,972.94
2019-01-25T02:03:04.590Z,972.80
2019-01-25T02:04:04.611Z,972.80
2019-01-25T02:05:05.244Z,972.89
2019-01-25T02:06:04.904Z,973.13
2019-01-25T02:07:05.064Z,972.86
2019-01-25T02:08:04.968Z,972.91
2019-01-25T02:09:05.394Z,972.91
2019-01-25T02:10:05.479Z,972.97
2019-01-25T02:11:05.508Z,972.86
2019-01-25T02:12:04.866Z,972.94
2019-01-25T02:13:05.425Z,972.91
2019-01-25T02:14:05.444Z,972.97
2019-01-25T02:15:04.727Z,972.97
2019-01-25T02:16:05.038Z,973.11
2019-01-25T02:17:05.317Z,973.00
2019-01-25T02:18:04.704Z,973.02
2019-01-25T02:19:05.314Z,973.02
2019-01-25T02:20:05.321Z,972.92
2019-01-25T02:21:05.393Z,973.02
2019-01-25T02:22:05.469Z,972.97
2019-01-25T02:23:05.170Z,972.94
2019-01-25T02:24:04.582Z,972.91
2019-01-25T02:25:05.459Z,972.92
2019-01-25T02:26:05.518Z,973.00
2019-01-25T02:27:04.526Z,972.94
2019-01-25T02:28:04.667Z,973.03
2019-01-25T02:29:11.457Z,972.86
2019-01-25T02:30:05.005Z,973.03
2019-01-25T02:31:05.149Z,973.14
2019-01-25T02:32:04.562Z,972.89
2019-01-25T02:33:04.664Z,972.86
2019-01-25T02:34:04.700Z,972.89
2019-01-25T02:35:05.397Z,973.03
2019-01-25T02:36:05.393Z,972.86
2019-01-25T02:37:04.931Z,972.81
2019-01-25T02:38:04.629Z,972.86
2019-01-25T02:39:04.631Z,972.92
2019-01-25T02:40:04.917Z,972.94
2019-01-25T02:41:05.348Z,972.92
2019-01-25T02:42:05.290Z,972.86
2019-01-25T02:43:04.757Z,972.86
2019-01-25T02:44:05.180Z,972.81
2019-01-25T02:45:04.999Z,972.81
2019-01-25T02:46:05.156Z,972.81
2019-01-25T02:47:04.659Z,972.75
2019-01-25T02:48:04.770Z,972.97
2019-01-25T02:49:05.081Z,973.00
2019-01-25T02:50:04.652Z,972.86
2019-01-25T02:51:05.161Z,972.86
2019-01-25T02:52:05.474Z,972.84
2019-01-25T02:53:04.704Z,972.97
2019-01-25T02:54:04.736Z,972.84
2019-01-25T02:55:05.309Z,972.92
2019-01-25T02:56:05.906Z,972.89
2019-01-25T02:57:05.518Z,972.86
2019-01-25T02:58:04.643Z,972.86
2019-01-25T02:59:05.089Z,972.81
2019-01-25T03:00:04.802Z,972.81
2019-01-25T03:01:05.385Z,972.92
2019-01-25T03:02:04.775Z,972.84
2019-01-25T03:03:04.924Z,972.92
2019-01-25T03:04:05.216Z,972.84
2019-01-25T03:05:05.200Z,972.83
2019-01-25T03:06:04.783Z,972.89
2019-01-25T03:07:05.185Z,972.89
2019-01-25T03:08:04.640Z,972.89
2019-01-25T03:09:04.837Z,972.75
2019-01-25T03:10:04.684Z,972.78
2019-01-25T03:11:05.050Z,972.81
2019-01-25T03:12:05.385Z,972.75
2019-01-25T03:13:05.415Z,972.75
2019-01-25T03:14:05.006Z,972.86
2019-01-25T03:15:05.187Z,972.86
2019-01-25T03:16:05.426Z,972.95
2019-01-25T03:17:05.071Z,972.86
2019-01-25T03:18:05.223Z,972.84
2019-01-25T03:19:04.975Z,972.92
2019-01-25T03:20:04.934Z,973.03
2019-01-25T03:21:05.511Z,972.89
2019-01-25T03:22:05.183Z,972.95
2019-01-25T03:23:04.809Z,972.92
2019-01-25T03:24:05.358Z,972.95
2019-01-25T03:25:04.929Z,972.78
2019-01-25T03:26:04.632Z,972.95
2019-01-25T03:27:04.747Z,972.87
2019-01-25T03:28:04.805Z,972.87
2019-01-25T03:29:11.490Z,972.90
2019-01-25T03:30:05.106Z,972.84
2019-01-25T03:31:05.077Z,972.95
2019-01-25T03:32:04.608Z,972.84
2019-01-25T03:33:04.914Z,972.87
2019-01-25T03:34:05.002Z,972.90
2019-01-25T03:35:05.170Z,972.95
2019-01-25T03:36:04.629Z,972.87
2019-01-25T03:37:05.411Z,972.95
2019-01-25T03:38:05.359Z,972.95
2019-01-25T03:39:05.552Z,973.03
2019-01-25T03:40:04.598Z,972.98
2019-01-25T03:41:04.965Z,972.87
2019-01-25T03:42:05.129Z,973.01
2019-01-25T03:43:05.311Z,972.93
2019-01-25T03:44:05.420Z,973.01
2019-01-25T03:45:04.886Z,972.82
2019-01-25T03:46:05.002Z,972.95
2019-01-25T03:47:05.266Z,972.90
2019-01-25T03:48:04.712Z,972.90
2019-01-25T03:49:12.728Z,972.87
2019-01-25T03:50:05.131Z,972.95
2019-01-25T03:51:05.380Z,972.98
2019-01-25T03:52:05.323Z,973.04
2019-01-25T03:53:05.423Z,972.95
2019-01-25T03:54:05.184Z,973.01
2019-01-25T03:55:05.548Z,972.98
2019-01-25T03:56:05.601Z,973.06
2019-01-25T03:57:04.740Z,973.06
2019-01-25T03:58:05.235Z,972.98
2019-01-25T03:59:04.810Z,972.93
2019-01-25T04:00:04.816Z,973.06
2019-01-25T04:01:04.981Z,973.09
2019-01-25T04:02:05.149Z,972.98
2019-01-25T04:03:05.457Z,973.09
2019-01-25T04:04:05.191Z,972.90
2019-01-25T04:05:05.349Z,973.04
2019-01-25T04:06:04.855Z,973.01
2019-01-25T04:07:05.350Z,972.98
2019-01-25T04:08:05.448Z,972.95
2019-01-25T04:09:05.525Z,973.04
2019-01-25T04:10:05.080Z,972.93
2019-01-25T04:11:05.215Z,973.06
2019-01-25T04:12:05.214Z,972.87
2019-01-25T04:13:05.321Z,973.01
2019-01-25T04:14:05.263Z,972.98
2019-01-25T04:15:05.355Z,972.93
2019-01-25T04:16:05.027Z,972.95
2019-01-25T04:17:05.373Z,972.98
2019-01-25T04:18:05.563Z,973.01
2019-01-25T04:19:04.679Z,973.09
2019-01-25T04:20:05.110Z,973.09
2019-01-25T04:21:05.316Z,973.06
2019-01-25T04:22:05.468Z,973.12
2019-01-25T04:23:04.821Z,973.06
2019-01-25T04:24:07.147Z,972.98
2019-01-25T04:25:05.185Z,973.04
2019-01-25T04:26:04.700Z,973.06
2019-01-25T04:27:05.127Z,973.04
2019-01-25T04:28:05.204Z,972.93
2019-01-25T04:29:11.540Z,973.06
2019-01-25T04:30:05.037Z,973.17
2019-01-25T04:31:05.309Z,973.12
2019-01-25T04:32:05.500Z,973.04
2019-01-25T04:33:04.750Z,973.17
2019-01-25T04:34:05.254Z,973.04
2019-01-25T04:35:05.478Z,972.93
2019-01-25T04:36:04.981Z,972.93
2019-01-25T04:37:04.986Z,973.28
2019-01-25T04:38:04.578Z,973.14
2019-01-25T04:39:04.684Z,973.23
2019-01-25T04:40:04.762Z,973.25
2019-01-25T04:41:12.176Z,973.09
2019-01-25T04:42:04.834Z,972.95
2019-01-25T04:43:04.859Z,973.09
2019-01-25T04:44:05.470Z,973.09
2019-01-25T04:45:04.543Z,973.12
2019-01-25T04:46:05.099Z,973.09
2019-01-25T04:47:05.452Z,973.20
2019-01-25T04:48:05.682Z,973.06
2019-01-25T04:49:04.729Z,973.12
2019-01-25T04:50:05.181Z,973.22
2019-01-25T04:51:05.214Z,973.14
2019-01-25T04:52:05.325Z,973.11
2019-01-25T04:53:04.902Z,973.20
2019-01-25T04:54:05.570Z,973.28
2019-01-25T04:55:04.588Z,973.06
2019-01-25T04:56:04.717Z,973.28
2019-01-25T04:57:05.207Z,973.00
2019-01-25T04:58:05.357Z,973.14
2019-01-25T04:59:04.685Z,973.17
2019-01-25T05:00:04.652Z,973.20
2019-01-25T05:01:05.378Z,973.17
2019-01-25T05:02:05.278Z,973.14
2019-01-25T05:03:04.836Z,973.25
2019-01-25T05:04:05.383Z,973.11
2019-01-25T05:05:05.210Z,973.14
2019-01-25T05:06:04.911Z,973.20
2019-01-25T05:07:05.543Z,973.30
2019-01-25T05:08:04.945Z,973.19
2019-01-25T05:09:05.160Z,973.30
2019-01-25T05:10:05.100Z,973.36
2019-01-25T05:11:04.684Z,973.19
2019-01-25T05:12:04.756Z,973.28
2019-01-25T05:13:05.242Z,973.25
2019-01-25T05:14:05.471Z,973.36
2019-01-25T05:15:04.736Z,973.11
2019-01-25T05:16:05.328Z,973.33
2019-01-25T05:17:04.664Z,973.39
2019-01-25T05:18:04.778Z,973.22
2019-01-25T05:19:04.860Z,973.28
2019-01-25T05:20:04.958Z,973.25
2019-01-25T05:21:04.975Z,973.50
2019-01-25T05:22:05.033Z,973.25
2019-01-25T05:23:05.258Z,973.19
2019-01-25T05:24:04.872Z,973.30
2019-01-25T05:25:05.949Z,973.41
2019-01-25T05:26:05.417Z,973.30
2019-01-25T05:27:04.974Z,973.28
2019-01-25T05:28:05.048Z,973.30
2019-01-25T05:29:04.614Z,973.33
2019-01-25T05:30:04.846Z,973.36
2019-01-25T05:31:04.904Z,973.22
2019-01-25T05:32:05.095Z,973.28
2019-01-25T05:33:05.417Z,973.25
2019-01-25T05:34:11.576Z,973.28
2019-01-25T05:35:05.045Z,973.36
2019-01-25T05:36:04.524Z,973.28
2019-01-25T05:37:05.030Z,973.47
2019-01-25T05:38:05.530Z,973.30
2019-01-25T05:39:04.577Z,973.36
2019-01-25T05:40:04.778Z,973.38
2019-01-25T05:41:04.998Z,973.30
2019-01-25T05:42:05.112Z,973.25
2019-01-25T05:43:05.246Z,973.28
2019-01-25T05:44:04.637Z,973.57
2019-01-25T05:45:05.152Z,973.25
2019-01-25T05:46:05.333Z,973.38
2019-01-25T05:47:04.941Z,973.44
2019-01-25T05:48:04.697Z,973.47
2019-01-25T05:49:05.003Z,973.41
2019-01-25T05:50:04.559Z,973.30
2019-01-25T05:51:05.055Z,973.27
2019-01-25T05:52:05.129Z,973.49
2019-01-25T05:53:05.299Z,973.47
2019-01-25T05:54:04.829Z,973.30
2019-01-25T05:55:06.191Z,973.33
2019-01-25T05:56:04.516Z,973.35
2019-01-25T05:57:04.670Z,973.52
2019-01-25T05:58:04.707Z,973.41
2019-01-25T05:59:05.055Z,973.30
2019-01-25T06:00:05.364Z,973.49
2019-01-25T06:01:05.534Z,973.36
2019-01-25T06:02:04.878Z,973.30
2019-01-25T06:03:05.435Z,973.47
2019-01-25T06:04:04.634Z,973.41
2019-01-25T06:05:04.844Z,973.41
2019-01-25T06:06:05.598Z,973.47
2019-01-25T06:07:05.162Z,973.47
2019-01-25T06:08:05.077Z,973.38
2019-01-25T06:09:05.124Z,973.35
2019-01-25T06:10:05.191Z,973.46
2019-01-25T06:11:05.324Z,973.41
2019-01-25T06:12:04.746Z,973.56
2019-01-25T06:13:05.140Z,973.52
2019-01-25T06:14:05.333Z,973.47
2019-01-25T06:15:05.489Z,973.62
2019-01-25T06:16:04.788Z,973.41
2019-01-25T06:17:05.156Z,973.56
2019-01-25T06:18:05.215Z,973.54
2019-01-25T06:19:04.751Z,973.49
2019-01-25T06:20:04.976Z,973.54
2019-01-25T06:21:05.359Z,973.67
2019-01-25T06:22:04.798Z,973.49
2019-01-25T06:23:04.877Z,973.70
2019-01-25T06:24:05.259Z,973.73
2019-01-25T06:25:04.778Z,973.52
2019-01-25T06:26:04.615Z,973.67
2019-01-25T06:27:04.887Z,973.56
2019-01-25T06:28:04.980Z,973.67
2019-01-25T06:29:11.630Z,973.81
2019-01-25T06:30:05.129Z,973.73
2019-01-25T06:31:05.371Z,973.70
2019-01-25T06:32:04.919Z,973.76
2019-01-25T06:33:05.331Z,973.81
2019-01-25T06:34:04.639Z,973.73
2019-01-25T06:35:05.004Z,973.54
2019-01-25T06:36:04.661Z,973.64
2019-01-25T06:37:05.133Z,973.76
2019-01-25T06:38:04.936Z,973.73
2019-01-25T06:39:04.816Z,973.87
2019-01-25T06:40:04.843Z,973.84
2019-01-25T06:41:04.837Z,973.73
2019-01-25T06:42:05.057Z,973.70
2019-01-25T06:43:05.529Z,973.95
2019-01-25T06:44:04.637Z,973.89
2019-01-25T06:45:05.146Z,973.78
2019-01-25T06:46:05.228Z,973.92
2019-01-25T06:47:04.582Z,973.86
2019-01-25T06:48:04.850Z,973.97
2019-01-25T06:49:04.806Z,973.84
2019-01-25T06:50:04.974Z,973.84
2019-01-25T06:51:05.495Z,973.87
2019-01-25T06:52:05.905Z,973.92
2019-01-25T06:53:04.764Z,973.97
2019-01-25T06:54:04.993Z,973.89
2019-01-25T06:55:05.357Z,973.92
2019-01-25T06:56:05.246Z,973.78
2019-01-25T06:57:05.450Z,973.92
2019-01-25T06:58:05.787Z,973.92
2019-01-25T06:59:04.880Z,973.95
2019-01-25T07:00:05.464Z,973.95
2019-01-25T07:01:04.540Z,973.92
2019-01-25T07:02:05.407Z,973.92
2019-01-25T07:03:05.307Z,974.11
2019-01-25T07:04:05.648Z,973.92
2019-01-25T07:05:05.303Z,973.81
2019-01-25T07:06:05.503Z,973.92
2019-01-25T07:07:05.570Z,973.92
2019-01-25T07:08:05.328Z,973.95
2019-01-25T07:09:04.720Z,973.86
2019-01-25T07:10:05.390Z,973.89
2019-01-25T07:11:04.683Z,974.06
2019-01-25T07:12:05.081Z,973.92
2019-01-25T07:13:05.656Z,974.00
2019-01-25T07:14:04.782Z,974.00
2019-01-25T07:15:04.777Z,974.00
2019-01-25T07:16:05.146Z,973.97
2019-01-25T07:17:05.233Z,974.05
2019-01-25T07:18:05.406Z,974.05
2019-01-25T07:19:04.588Z,973.94
2019-01-25T07:20:04.881Z,974.03
2019-01-25T07:21:04.952Z,974.03
2019-01-25T07:22:04.999Z,974.19
2019-01-25T07:23:05.159Z,974.22
2019-01-25T07:24:05.175Z,974.08
2019-01-25T07:25:04.849Z,974.05
2019-01-25T07:26:05.548Z,974.16
2019-01-25T07:27:05.495Z,974.08
2019-01-25T07:28:04.989Z,974.16
2019-01-25T07:29:11.678Z,974.03
2019-01-25T07:30:05.337Z,974.08
2019-01-25T07:31:04.772Z,974.08
2019-01-25T07:32:05.167Z,974.27
2019-01-25T07:33:04.861Z,974.22
2019-01-25T07:34:05.145Z,974.16
2019-01-25T07:35:05.265Z,974.19
2019-01-25T07:36:04.519Z,974.24
2019-01-25T07:37:04.646Z,974.19
2019-01-25T07:38:04.790Z,974.33
2019-01-25T07:39:05.133Z,974.24
2019-01-25T07:40:04.863Z,974.19
2019-01-25T07:41:04.953Z,974.30
2019-01-25T07:42:05.551Z,974.35
2019-01-25T07:43:05.005Z,974.08
2019-01-25T07:44:05.324Z,974.30
2019-01-25T07:45:04.859Z,974.30
2019-01-25T07:46:05.282Z,974.30
2019-01-25T07:47:05.417Z,974.24
2019-01-25T07:48:04.770Z,974.16
2019-01-25T07:49:05.330Z,974.21
2019-01-25T07:50:04.480Z,974.19
2019-01-25T07:51:04.880Z,974.13
2019-01-25T07:52:04.593Z,974.13
2019-01-25T07:53:04.950Z,974.24
2019-01-25T07:54:05.432Z,974.21
2019-01-25T07:55:05.254Z,974.40
2019-01-25T07:56:04.952Z,974.29
2019-01-25T07:57:04.953Z,974.35
2019-01-25T07:58:05.224Z,974.29
2019-01-25T07:59:04.497Z,974.29
2019-01-25T08:00:04.909Z,974.24
2019-01-25T08:01:04.992Z,974.18
2019-01-25T08:02:05.493Z,974.21
2019-01-25T08:03:04.870Z,974.18
2019-01-25T08:04:05.370Z,974.21
2019-01-25T08:05:04.811Z,974.27
2019-01-25T08:06:05.181Z,974.18
2019-01-25T08:07:04.862Z,974.26
2019-01-25T08:08:05.092Z,974.18
2019-01-25T08:09:04.705Z,974.46
2019-01-25T08:10:05.180Z,974.26
2019-01-25T08:11:04.871Z,974.35
2019-01-25T08:12:08.439Z,974.48
2019-01-25T08:13:05.346Z,974.26
2019-01-25T08:14:05.367Z,974.43
2019-01-25T08:15:05.371Z,974.37
2019-01-25T08:16:05.041Z,974.40
2019-01-25T08:17:05.205Z,974.29
2019-01-25T08:18:05.424Z,974.32
2019-01-25T08:19:04.550Z,974.34
2019-01-25T08:20:05.037Z,974.42
2019-01-25T08:21:05.336Z,974.37
2019-01-25T08:22:04.792Z,974.53
2019-01-25T08:23:05.070Z,974.39
2019-01-25T08:24:05.193Z,974.53
2019-01-25T08:25:05.319Z,974.42
2019-01-25T08:26:05.069Z,974.34
2019-01-25T08:27:05.407Z,974.42
2019-01-25T08:28:05.605Z,974.53
2019-01-25T08:29:04.934Z,974.42
2019-01-25T08:30:05.138Z,974.42
2019-01-25T08:31:05.423Z,974.28
2019-01-25T08:32:04.913Z,974.31
2019-01-25T08:33:05.375Z,974.47
2019-01-25T08:34:04.810Z,974.36
2019-01-25T08:35:04.940Z,974.42
2019-01-25T08:36:05.102Z,974.47
2019-01-25T08:37:04.917Z,974.44
2019-01-25T08:38:07.005Z,974.47
2019-01-25T08:39:04.809Z,974.50
2019-01-25T08:40:05.405Z,974.36
2019-01-25T08:41:04.669Z,974.36
2019-01-25T08:42:16.073Z,974.49
2019-01-25T08:43:04.657Z,974.58
2019-01-25T08:44:04.746Z,974.44
2019-01-25T08:45:05.124Z,974.38
2019-01-25T08:46:05.238Z,974.49
2019-01-25T08:47:05.304Z,974.46
2019-01-25T08:48:05.040Z,974.44
2019-01-25T08:49:05.326Z,974.41
2019-01-25T08:50:05.349Z,974.35
2019-01-25T08:51:04.860Z,974.49
2019-01-25T08:52:05.012Z,974.46
2019-01-25T08:53:05.513Z,974.57
2019-01-25T08:54:05.195Z,974.54
2019-01-25T08:55:05.408Z,974.62
2019-01-25T08:56:05.303Z,974.62
2019-01-25T08:57:04.816Z,974.59
2019-01-25T08:58:05.076Z,974.54
2019-01-25T08:59:05.337Z,974.70
2019-01-25T09:00:05.311Z,974.62
2019-01-25T09:01:04.970Z,974.56
2019-01-25T09:02:04.681Z,974.73
2019-01-25T09:03:05.346Z,974.70
2019-01-25T09:04:05.449Z,974.78
2019-01-25T09:05:05.122Z,974.70
2019-01-25T09:06:05.211Z,974.64
2019-01-25T09:07:04.611Z,974.67
2019-01-25T09:08:04.689Z,974.61
2019-01-25T09:09:05.105Z,974.61
2019-01-25T09:10:05.156Z,974.70
2019-01-25T09:11:05.388Z,974.70
2019-01-25T09:12:04.729Z,974.72
2019-01-25T09:13:05.157Z,974.58
2019-01-25T09:14:04.631Z,974.61
2019-01-25T09:15:04.913Z,974.80
2019-01-25T09:16:04.565Z,974.80
2019-01-25T09:17:04.652Z,974.55
2019-01-25T09:18:04.990Z,974.71
2019-01-25T09:19:05.315Z,974.58
2019-01-25T09:20:05.352Z,974.71
2019-01-25T09:21:05.543Z,974.74
2019-01-25T09:22:04.874Z,974.66
2019-01-25T09:23:05.247Z,974.66
2019-01-25T09:24:04.986Z,974.66
2019-01-25T09:25:05.235Z,974.68
2019-01-25T09:26:04.483Z,974.60
2019-01-25T09:27:05.008Z,974.65
2019-01-25T09:28:05.659Z,974.57
2019-01-25T09:29:09.532Z,974.51
2019-01-25T09:30:05.097Z,974.48
2019-01-25T09:31:05.090Z,974.59
2019-01-25T09:32:05.045Z,974.32
2019-01-25T09:33:05.497Z,974.53
2019-01-25T09:34:04.936Z,974.64
2019-01-25T09:35:04.799Z,974.45
2019-01-25T09:36:05.536Z,974.51
2019-01-25T09:37:04.771Z,974.48
2019-01-25T09:38:04.604Z,974.39
2019-01-25T09:39:05.305Z,974.45
2019-01-25T09:40:04.498Z,974.64
2019-01-25T09:41:04.648Z,974.58
2019-01-25T09:42:04.667Z,974.50
2019-01-25T09:43:04.869Z,974.50
2019-01-25T09:44:05.092Z,974.50
2019-01-25T09:45:04.506Z,974.66
2019-01-25T09:46:05.055Z,974.63
2019-01-25T09:47:05.162Z,974.58
2019-01-25T09:48:05.271Z,974.63
2019-01-25T09:49:04.561Z,974.44
2019-01-25T09:50:11.304Z,974.41
2019-01-25T09:51:04.903Z,974.41
2019-01-25T09:52:05.053Z,974.46
2019-01-25T09:53:05.418Z,974.41
2019-01-25T09:54:05.104Z,974.44
2019-01-25T09:55:05.376Z,974.63
2019-01-25T09:56:05.561Z,974.52
2019-01-25T09:57:04.966Z,974.60
2019-01-25T09:58:04.608Z,974.49
2019-01-25T09:59:04.846Z,974.68
2019-01-25T10:00:05.124Z,974.76
2019-01-25T10:01:05.402Z,974.68
2019-01-25T10:02:05.131Z,974.65
2019-01-25T10:03:05.292Z,974.54
2019-01-25T10:04:04.783Z,974.70
2019-01-25T10:05:04.803Z,974.62
2019-01-25T10:06:04.949Z,974.51
2019-01-25T10:07:05.415Z,974.53
2019-01-25T10:08:05.097Z,974.62
2019-01-25T10:09:05.403Z,974.56
2019-01-25T10:10:04.607Z,974.59
2019-01-25T10:11:04.718Z,974.50
2019-01-25T10:12:05.322Z,974.50
2019-01-25T10:13:05.358Z,974.61
2019-01-25T10:14:04.478Z,974.61
2019-01-25T10:15:05.147Z,974.58
2019-01-25T10:16:05.457Z,974.58
2019-01-25T10:17:05.245Z,974.69
2019-01-25T10:18:04.758Z,974.72
2019-01-25T10:19:05.082Z,974.63
2019-01-25T10:20:05.174Z,974.55
2019-01-25T10:21:05.196Z,974.75
2019-01-25T10:22:05.354Z,974.69
2019-01-25T10:23:05.662Z,974.55
2019-01-25T10:24:04.581Z,974.61
2019-01-25T10:25:04.750Z,974.69
2019-01-25T10:26:05.410Z,974.52
2019-01-25T10:27:04.514Z,974.52
2019-01-25T10:28:04.719Z,974.44
2019-01-25T10:29:11.846Z,974.49
2019-01-25T10:30:05.308Z,974.60
2019-01-25T10:31:05.379Z,974.38
2019-01-25T10:32:04.683Z,974.58
2019-01-25T10:33:04.990Z,974.41
2019-01-25T10:34:05.276Z,974.36
2019-01-25T10:35:04.746Z,974.36
2019-01-25T10:36:05.383Z,974.38
2019-01-25T10:37:04.676Z,974.41
2019-01-25T10:38:05.298Z,974.44
2019-01-25T10:39:05.302Z,974.52
2019-01-25T10:40:04.960Z,974.44
2019-01-25T10:41:04.957Z,974.38
2019-01-25T10:42:05.166Z,974.49
2019-01-25T10:43:05.357Z,974.60
2019-01-25T10:44:05.511Z,974.44
2019-01-25T10:45:05.109Z,974.44
2019-01-25T10:46:04.848Z,974.44
2019-01-25T10:47:04.806Z,974.47
2019-01-25T10:48:04.492Z,974.47
2019-01-25T10:49:05.101Z,974.49
2019-01-25T10:50:05.274Z,974.35
2019-01-25T10:51:05.526Z,974.46
2019-01-25T10:52:04.916Z,974.55
2019-01-25T10:53:04.933Z,974.44
2019-01-25T10:54:05.017Z,974.41
2019-01-25T10:55:04.551Z,974.41
2019-01-25T10:56:05.183Z,974.38
2019-01-25T10:57:05.286Z,974.46
2019-01-25T10:58:04.890Z,974.52
2019-01-25T10:59:05.238Z,974.38
2019-01-25T11:00:04.887Z,974.43
2019-01-25T11:01:04.996Z,974.51
2019-01-25T11:02:05.014Z,974.35
2019-01-25T11:03:05.306Z,974.51
2019-01-25T11:04:05.095Z,974.35
2019-01-25T11:05:04.607Z,974.37
2019-01-25T11:06:04.697Z,974.26
2019-01-25T11:07:05.253Z,974.46
2019-01-25T11:08:04.569Z,974.29
2019-01-25T11:09:04.580Z,974.29
2019-01-25T11:10:05.274Z,974.26
2019-01-25T11:11:05.241Z,974.23
2019-01-25T11:12:05.449Z,974.29
2019-01-25T11:13:05.433Z,974.26
2019-01-25T11:14:05.404Z,974.29
2019-01-25T11:15:04.937Z,974.37
2019-01-25T11:16:05.364Z,974.15
2019-01-25T11:17:04.830Z,974.20
2019-01-25T11:18:05.020Z,974.31
2019-01-25T11:19:05.089Z,974.31
2019-01-25T11:20:05.280Z,974.26
2019-01-25T11:21:05.311Z,974.17
2019-01-25T11:22:05.045Z,974.17
2019-01-25T11:23:05.089Z,974.26
2019-01-25T11:24:08.263Z,974.23
2019-01-25T11:25:04.963Z,974.12
2019-01-25T11:26:05.454Z,974.17
2019-01-25T11:27:04.516Z,974.31
2019-01-25T11:28:04.617Z,974.09
2019-01-25T11:29:11.372Z,974.17
2019-01-25T11:30:04.805Z,974.22
2019-01-25T11:31:05.346Z,974.03
2019-01-25T11:32:05.479Z,974.00
2019-01-25T11:33:04.579Z,974.03
2019-01-25T11:34:04.755Z,974.09
2019-01-25T11:35:05.094Z,974.03
2019-01-25T11:36:05.140Z,974.11
2019-01-25T11:37:05.418Z,973.97
2019-01-25T11:38:04.522Z,974.06
2019-01-25T11:39:05.090Z,974.11
2019-01-25T11:40:05.483Z,974.19
2019-01-25T11:41:04.543Z,974.03
2019-01-25T11:42:04.963Z,974.08
2019-01-25T11:43:09.388Z,974.00
2019-01-25T11:44:05.105Z,974.00
2019-01-25T11:45:05.513Z,974.00
2019-01-25T11:46:04.587Z,974.03
2019-01-25T11:47:04.761Z,973.92
2019-01-25T11:48:04.778Z,974.06
2019-01-25T11:49:04.964Z,974.14
2019-01-25T11:50:05.375Z,974.03
2019-01-25T11:51:05.372Z,974.09
2019-01-25T11:52:04.676Z,974.03
2019-01-25T11:53:05.422Z,974.12
2019-01-25T11:54:04.988Z,974.20
2019-01-25T11:55:05.064Z,974.09
2019-01-25T11:56:05.374Z,974.06
2019-01-25T11:57:04.735Z,974.20
2019-01-25T11:58:04.745Z,974.20
2019-01-25T11:59:04.883Z,974.17
2019-01-25T12:00:04.842Z,974.17
2019-01-25T12:01:05.154Z,974.09
2019-01-25T12:02:05.325Z,974.06
2019-01-25T12:03:04.521Z,973.95
2019-01-25T12:04:04.591Z,974.09
2019-01-25T12:05:05.140Z,974.04
2019-01-25T12:06:05.142Z,974.15
2019-01-25T12:07:04.547Z,974.15
2019-01-25T12:08:04.621Z,974.04
2019-01-25T12:09:04.765Z,974.09
2019-01-25T12:10:04.746Z,974.04
2019-01-25T12:11:05.176Z,974.04
2019-01-25T12:12:05.544Z,973.98
2019-01-25T12:13:04.726Z,974.20
2019-01-25T12:14:05.280Z,973.98
2019-01-25T12:15:04.988Z,974.18
2019-01-25T12:16:05.155Z,974.06
2019-01-25T12:17:04.761Z,973.95
2019-01-25T12:18:04.928Z,974.01
2019-01-25T12:19:04.531Z,973.95
2019-01-25T12:20:04.711Z,973.84
2019-01-25T12:21:04.974Z,974.15
2019-01-25T12:22:05.137Z,974.01
2019-01-25T12:23:05.234Z,974.01
2019-01-25T12:24:05.373Z,973.98
2019-01-25T12:25:04.682Z,973.98
2019-01-25T12:26:04.834Z,974.04
2019-01-25T12:27:04.835Z,974.01
2019-01-25T12:28:05.955Z,973.98